Time,TemperatureF,DewpointF,PressureIn,WindDirection,WindDirectionDegrees,WindSpeedMPH,WindSpeedGustMPH,Humidity,HourlyPrecipIn,Conditions,Clouds,dailyrainin,SoftwareType,DateUTC
2013-07-04 00:02:00,81.0,74.0,-100.00,SSW,208,7.0,17.0,79,-99.99,,,-99.99,,2013-07-04 04:02:00,
2013-07-04 00:33:00,81.0,74.0,-100.00,SSE,160,5.0,11.0,80,-99.99,,,-99.99,,2013-07-04 04:33:00,
2013-07-04 01:33:00,82.0,73.0,-100.00,South,187,9.0,22.0,74,-99.99,,,-99.99,,2013-07-04 05:33:00,
2013-07-04 01:43:00,83.0,74.0,-100.00,South,169,9.0,21.0,74,-99.99,,,-99.99,,2013-07-04 05:43:00,
2013-07-04 02:01:00,82.0,73.0,-100.00,SE,138,8.0,19.0,75,-99.99,,,-99.99,,2013-07-04 06:01:00,
2013-07-04 02:34:00,82.0,73.0,-100.00,South,188,7.0,18.0,74,-99.99,,,-99.99,,2013-07-04 06:34:00,
2013-07-04 02:43:00,82.0,72.0,-100.00,SSW,207,7.0,16.0,73,-99.99,,,-99.99,,2013-07-04 06:43:00,
2013-07-04 02:52:00,82.0,72.0,-100.00,South,187,8.0,17.0,71,-99.99,,,-99.99,,2013-07-04 06:52:00,
2013-07-04 03:02:00,82.0,72.0,-100.00,South,172,7.0,17.0,73,-99.99,,,-99.99,,2013-07-04 07:02:00,
2013-07-04 03:12:00,82.0,73.0,-100.00,SSW,208,8.0,17.0,75,-99.99,,,-99.99,,2013-07-04 07:12:00,
2013-07-04 03:22:00,81.0,72.0,-100.00,SSE,163,10.0,18.0,74,-99.99,,,-99.99,,2013-07-04 07:22:00,
2013-07-04 03:34:00,82.0,73.0,-100.00,SE,124,9.0,18.0,74,-99.99,,,-99.99,,2013-07-04 07:34:00,
2013-07-04 03:52:00,81.0,72.0,-100.00,SE,124,7.0,19.0,74,-99.99,,,-99.99,,2013-07-04 07:52:00,
2013-07-04 04:02:00,82.0,72.0,-100.00,South,169,8.0,20.0,73,-99.99,,,-99.99,,2013-07-04 08:02:00,
2013-07-04 04:11:00,82.0,72.0,-100.00,SE,131,10.0,18.0,72,-99.99,,,-99.99,,2013-07-04 08:11:00,
2013-07-04 04:22:00,82.0,72.0,-100.00,SE,128,8.0,18.0,72,-99.99,,,-99.99,,2013-07-04 08:22:00,
2013-07-04 04:33:00,81.0,72.0,-100.00,SSE,166,9.0,20.0,73,-99.99,,,-99.99,,2013-07-04 08:33:00,
2013-07-04 04:42:00,82.0,72.0,-100.00,WNW,293,8.0,16.0,73,-99.99,,,-99.99,,2013-07-04 08:42:00,
2013-07-04 04:53:00,82.0,73.0,-100.00,SSE,156,9.0,18.0,74,-99.99,,,-99.99,,2013-07-04 08:53:00,
2013-07-04 05:02:00,81.0,72.0,-100.00,East,87,7.0,17.0,75,-99.99,,,-99.99,,2013-07-04 09:02:00,
2013-07-04 05:11:00,81.0,71.0,-100.00,South,188,10.0,20.0,72,-99.99,,,-99.99,,2013-07-04 09:11:00,
2013-07-04 05:52:00,81.0,71.0,-100.00,SSE,155,9.0,22.0,72,-99.99,,,-99.99,,2013-07-04 09:52:00,
2013-07-04 06:34:00,81.0,72.0,-100.00,SSE,166,9.0,23.0,74,-99.99,,,-99.99,,2013-07-04 10:34:00,
2013-07-04 06:53:00,81.0,71.0,-100.00,WNW,287,9.0,22.0,72,-99.99,,,-99.99,,2013-07-04 10:53:00,
2013-07-04 07:43:00,82.0,72.0,-100.00,SSE,153,9.0,20.0,72,-99.99,,,-99.99,,2013-07-04 11:43:00,
2013-07-04 07:53:00,81.0,71.0,-100.00,SE,128,16.0,26.0,72,-99.99,,,-99.99,,2013-07-04 11:53:00,
2013-07-04 08:52:00,82.0,70.0,-100.00,SE,128,13.0,28.0,68,-99.99,,,-99.99,,2013-07-04 12:52:00,
2013-07-04 09:33:00,83.0,70.0,-100.00,SSE,158,12.0,21.0,66,-99.99,,,-99.99,,2013-07-04 13:33:00,
2013-07-04 09:43:00,84.0,72.0,-100.00,SSE,159,10.0,21.0,68,-99.99,,,-99.99,,2013-07-04 13:43:00,
2013-07-04 09:53:00,84.0,72.0,-100.00,SSE,167,11.0,21.0,68,-99.99,,,-99.99,,2013-07-04 13:53:00,
2013-07-04 10:02:00,84.0,72.0,-100.00,SSE,162,11.0,21.0,68,-99.99,,,-99.99,,2013-07-04 14:02:00,
2013-07-04 10:11:00,84.0,72.0,-100.00,SSW,211,10.0,20.0,68,-99.99,,,-99.99,,2013-07-04 14:11:00,
2013-07-04 10:22:00,84.0,72.0,-100.00,SE,145,10.0,20.0,68,-99.99,,,-99.99,,2013-07-04 14:22:00,
2013-07-04 10:33:00,85.0,72.0,-100.00,SE,134,9.0,19.0,66,-99.99,,,-99.99,,2013-07-04 14:33:00,
2013-07-04 10:43:00,85.0,73.0,-100.00,South,176,7.0,14.0,67,-99.99,,,-99.99,,2013-07-04 14:43:00,
2013-07-04 10:53:00,85.0,72.0,-100.00,South,186,7.0,17.0,66,-99.99,,,-99.99,,2013-07-04 14:53:00,
2013-07-04 11:02:00,85.0,71.0,-100.00,South,169,10.0,23.0,64,-99.99,,,-99.99,,2013-07-04 15:02:00,
2013-07-04 11:11:00,85.0,72.0,-100.00,ESE,113,7.0,19.0,66,-99.99,,,-99.99,,2013-07-04 15:11:00,
2013-07-04 11:23:00,86.0,73.0,-100.00,SSE,162,8.0,19.0,65,-99.99,,,-99.99,,2013-07-04 15:23:00,
2013-07-04 11:33:00,86.0,72.0,-100.00,SSE,166,8.0,21.0,64,-99.99,,,-99.99,,2013-07-04 15:33:00,
2013-07-04 11:43:00,86.0,71.0,-100.00,SE,132,9.0,19.0,62,-99.99,,,-99.99,,2013-07-04 15:43:00,
2013-07-04 11:52:00,86.0,71.0,-100.00,SW,214,9.0,18.0,62,-99.99,,,-99.99,,2013-07-04 15:52:00,
2013-07-04 12:02:00,86.0,71.0,-100.00,SE,143,9.0,18.0,61,-99.99,,,-99.99,,2013-07-04 16:02:00,
2013-07-04 12:11:00,86.0,70.0,-100.00,SSE,163,11.0,22.0,60,-99.99,,,-99.99,,2013-07-04 16:11:00,
2013-07-04 12:22:00,86.0,71.0,-100.00,SE,135,12.0,23.0,62,-99.99,,,-99.99,,2013-07-04 16:22:00,
2013-07-04 12:33:00,86.0,71.0,-100.00,SSE,163,11.0,23.0,62,-99.99,,,-99.99,,2013-07-04 16:33:00,
2013-07-04 12:43:00,87.0,71.0,-100.00,South,191,10.0,25.0,60,-99.99,,,-99.99,,2013-07-04 16:43:00,
2013-07-04 12:52:00,87.0,70.0,-100.00,SE,136,9.0,22.0,57,-99.99,,,-99.99,,2013-07-04 16:52:00,
2013-07-04 13:01:00,87.0,70.0,-100.00,SSE,167,9.0,22.0,58,-99.99,,,-99.99,,2013-07-04 17:01:00,
2013-07-04 13:12:00,87.0,71.0,-100.00,SSW,208,8.0,17.0,59,-99.99,,,-99.99,,2013-07-04 17:12:00,
2013-07-04 13:22:00,87.0,71.0,-100.00,South,173,8.0,19.0,59,-99.99,,,-99.99,,2013-07-04 17:22:00,
2013-07-04 13:34:00,87.0,71.0,-100.00,SW,224,7.0,15.0,59,-99.99,,,-99.99,,2013-07-04 17:34:00,
2013-07-04 13:43:00,87.0,71.0,-100.00,SSE,150,7.0,18.0,60,-99.99,,,-99.99,,2013-07-04 17:43:00,
2013-07-04 13:53:00,87.0,71.0,-100.00,SSE,165,7.0,17.0,59,-99.99,,,-99.99,,2013-07-04 17:53:00,
2013-07-04 14:01:00,87.0,71.0,-100.00,SSW,197,7.0,19.0,60,-99.99,,,-99.99,,2013-07-04 18:01:00,
2013-07-04 14:11:00,88.0,72.0,-100.00,SSW,197,8.0,24.0,60,-99.99,,,-99.99,,2013-07-04 18:11:00,
2013-07-04 14:33:00,88.0,71.0,-100.00,SW,221,8.0,17.0,58,-99.99,,,-99.99,,2013-07-04 18:33:00,
2013-07-04 14:43:00,88.0,71.0,-100.00,SE,134,8.0,15.0,58,-99.99,,,-99.99,,2013-07-04 18:43:00,
2013-07-04 15:02:00,88.0,72.0,-100.00,SSE,150,7.0,20.0,59,-99.99,,,-99.99,,2013-07-04 19:02:00,
2013-07-04 15:12:00,88.0,72.0,-100.00,SSE,166,7.0,19.0,59,-99.99,,,-99.99,,2013-07-04 19:12:00,
2013-07-04 15:22:00,88.0,72.0,-100.00,South,186,7.0,19.0,59,-99.99,,,-99.99,,2013-07-04 19:22:00,
2013-07-04 15:33:00,87.0,71.0,-100.00,SSW,201,8.0,18.0,59,-99.99,,,-99.99,,2013-07-04 19:33:00,
2013-07-04 15:43:00,88.0,71.0,-100.00,SSE,150,8.0,18.0,58,-99.99,,,-99.99,,2013-07-04 19:43:00,
2013-07-04 15:53:00,88.0,72.0,-100.00,South,173,8.0,15.0,60,-99.99,,,-99.99,,2013-07-04 19:53:00,
2013-07-04 16:02:00,83.0,73.0,-100.00,SE,139,16.0,23.0,71,-99.99,,,-99.99,,2013-07-04 20:02:00,
2013-07-04 16:11:00,83.0,72.0,-100.00,SSE,148,14.0,21.0,69,-99.99,,,-99.99,,2013-07-04 20:11:00,
2013-07-04 16:22:00,83.0,73.0,-100.00,SSE,160,13.0,23.0,71,-99.99,,,-99.99,,2013-07-04 20:22:00,
2013-07-04 16:34:00,83.0,72.0,-100.00,SE,138,15.0,25.0,69,-99.99,,,-99.99,,2013-07-04 20:34:00,
2013-07-04 16:42:00,85.0,72.0,-100.00,SE,124,8.0,20.0,66,-99.99,,,-99.99,,2013-07-04 20:42:00,
2013-07-04 16:53:00,86.0,70.0,-100.00,ESE,115,7.0,16.0,60,-99.99,,,-99.99,,2013-07-04 20:53:00,
2013-07-04 17:01:00,87.0,71.0,-100.00,SE,135,8.0,17.0,60,-99.99,,,-99.99,,2013-07-04 21:01:00,
2013-07-04 17:11:00,87.0,71.0,-100.00,SSE,160,8.0,17.0,59,-99.99,,,-99.99,,2013-07-04 21:11:00,
2013-07-04 17:22:00,86.0,71.0,-100.00,SE,145,10.0,18.0,62,-99.99,,,-99.99,,2013-07-04 21:22:00,
2013-07-04 17:32:00,85.0,72.0,-100.00,SE,134,10.0,19.0,66,-99.99,,,-99.99,,2013-07-04 21:32:00,
2013-07-04 17:43:00,86.0,71.0,-100.00,SSE,159,8.0,17.0,62,-99.99,,,-99.99,,2013-07-04 21:43:00,
2013-07-04 17:53:00,83.0,72.0,-100.00,SE,145,20.0,24.0,70,-99.99,,,-99.99,,2013-07-04 21:53:00,
2013-07-04 18:02:00,84.0,71.0,-100.00,SSE,152,12.0,23.0,66,-99.99,,,-99.99,,2013-07-04 22:02:00,
2013-07-04 18:12:00,84.0,71.0,-100.00,SE,135,12.0,20.0,66,-99.99,,,-99.99,,2013-07-04 22:12:00,
2013-07-04 18:22:00,86.0,72.0,-100.00,SSE,149,8.0,14.0,63,-99.99,,,-99.99,,2013-07-04 22:22:00,
2013-07-04 18:33:00,85.0,72.0,-100.00,SE,145,9.0,19.0,65,-99.99,,,-99.99,,2013-07-04 22:33:00,
2013-07-04 18:43:00,83.0,72.0,-100.00,SSE,152,13.0,19.0,69,-99.99,,,-99.99,,2013-07-04 22:43:00,
2013-07-04 18:52:00,82.0,72.0,-100.00,SE,131,13.0,17.0,72,-99.99,,,-99.99,,2013-07-04 22:52:00,
2013-07-04 19:01:00,82.0,72.0,-100.00,SE,141,16.0,19.0,72,-99.99,,,-99.99,,2013-07-04 23:01:00,
2013-07-04 19:12:00,82.0,72.0,-100.00,SE,138,16.0,20.0,72,-99.99,,,-99.99,,2013-07-04 23:12:00,
2013-07-04 19:23:00,81.0,71.0,-100.00,SE,136,18.0,20.0,72,-99.99,,,-99.99,,2013-07-04 23:23:00,
2013-07-04 19:33:00,82.0,73.0,-100.00,SE,135,19.0,23.0,74,-99.99,,,-99.99,,2013-07-04 23:33:00,
2013-07-04 19:43:00,81.0,72.0,-100.00,SE,146,18.0,22.0,73,-99.99,,,-99.99,,2013-07-04 23:43:00,
2013-07-04 19:52:00,82.0,72.0,-100.00,SE,145,18.0,22.0,71,-99.99,,,-99.99,,2013-07-04 23:52:00,
2013-07-04 20:01:00,82.0,71.0,-100.00,ESE,121,18.0,22.0,70,-99.99,,,-99.99,,2013-07-05 00:01:00,
2013-07-04 20:11:00,82.0,71.0,-100.00,SSE,159,14.0,21.0,70,-99.99,,,-99.99,,2013-07-05 00:11:00,
2013-07-04 20:22:00,82.0,72.0,-100.00,SE,131,17.0,20.0,71,-99.99,,,-99.99,,2013-07-05 00:22:00,
2013-07-04 20:32:00,82.0,72.0,-100.00,SE,129,19.0,23.0,73,-99.99,,,-99.99,,2013-07-05 00:32:00,
2013-07-04 20:43:00,81.0,72.0,-100.00,SE,134,19.0,22.0,73,-99.99,,,-99.99,,2013-07-05 00:43:00,
2013-07-04 20:52:00,82.0,72.0,-100.00,SE,127,20.0,24.0,73,-99.99,,,-99.99,,2013-07-05 00:52:00,
2013-07-04 21:01:00,81.0,71.0,-100.00,SE,128,21.0,24.0,72,-99.99,,,-99.99,,2013-07-05 01:01:00,
2013-07-04 21:11:00,81.0,71.0,-100.00,SE,128,21.0,24.0,72,-99.99,,,-99.99,,2013-07-05 01:11:00,
2013-07-04 21:22:00,81.0,71.0,-100.00,SE,138,22.0,26.0,71,-99.99,,,-99.99,,2013-07-05 01:22:00,
2013-07-04 21:32:00,82.0,72.0,-100.00,SE,143,20.0,23.0,71,-99.99,,,-99.99,,2013-07-05 01:32:00,
2013-07-04 21:42:00,82.0,72.0,-100.00,ESE,114,20.0,23.0,71,-99.99,,,-99.99,,2013-07-05 01:42:00,
2013-07-04 21:52:00,82.0,71.0,-100.00,SE,132,17.0,26.0,70,-99.99,,,-99.99,,2013-07-05 01:52:00,
2013-07-04 22:02:00,82.0,72.0,-100.00,SE,136,20.0,28.0,71,-99.99,,,-99.99,,2013-07-05 02:02:00,
2013-07-04 22:11:00,82.0,72.0,-100.00,SSE,150,14.0,25.0,71,-99.99,,,-99.99,,2013-07-05 02:11:00,
2013-07-04 22:22:00,83.0,73.0,-100.00,SE,142,9.0,19.0,71,-99.99,,,-99.99,,2013-07-05 02:22:00,
2013-07-04 22:32:00,81.0,67.0,-100.00,NE,34,11.0,38.0,63,-99.99,,,-99.99,,2013-07-05 02:32:00,
2013-07-04 22:42:00,78.0,67.0,-100.00,NE,34,16.0,29.0,69,-99.99,,,-99.99,,2013-07-05 02:42:00,
2013-07-04 22:52:00,75.0,70.0,-100.00,SE,145,9.0,15.0,84,-99.99,,,-99.99,,2013-07-05 02:52:00,
2013-07-04 23:02:00,75.0,70.0,-100.00,SSE,162,10.0,16.0,84,-99.99,,,-99.99,,2013-07-05 03:02:00,
2013-07-04 23:11:00,75.0,70.0,-100.00,SSE,162,10.0,16.0,84,-99.99,,,-99.99,,2013-07-05 03:11:00,
2013-07-04 23:22:00,76.0,70.0,-100.00,SSE,156,11.0,18.0,81,-99.99,,,-99.99,,2013-07-05 03:22:00,
2013-07-04 23:32:00,77.0,70.0,-100.00,SSE,152,11.0,19.0,80,-99.99,,,-99.99,,2013-07-05 03:32:00,
2013-07-04 23:42:00,77.0,70.0,-100.00,SSE,163,8.0,15.0,80,-99.99,,,-99.99,,2013-07-05 03:42:00,
2013-07-04 23:52:00,77.0,70.0,-100.00,SSE,163,8.0,15.0,80,-99.99,,,-99.99,,2013-07-05 03:52:00,